Flight Track Log - Related Links

Times and Time Zones

All times are in EDT time to prevent confusion due to time zone crossing. See the FSR411 flight status page for this flight to view local times or setup timezone preferences in your user account.

Time Position Orientation Groundspeed Altitude Reporting Facility
EDT Latitude Longitude Course Direction KTS MPH feet Rate Location/Type
Wed 07:06:18 PM 35.8322 -78.8458 229° Southwest 243 280 3,100  Level Washington Center
Wed 07:07:19 PM 35.8239 -78.9247 263° West 243 280 7,000 1,983 Climbing Washington Center
Wed 07:08:19 PM 35.8319 -79.0097 277° West 243 280 7,100 1,424 Climbing Washington Center
Wed 07:09:17 PM 35.8314 -79.0942 270° West 243 280 9,800 2,924 Climbing Washington Center
Wed 07:10:18 PM 35.8350 -79.1867 273° West 260 299 12,900 3,039 Climbing Washington Center
Wed 07:13:10 PM 35.8167 -79.5239 266° West 370 426 21,600 3,078 Climbing Atlanta Center
Wed 07:14:10 PM 35.7964 -79.6506 259° West 370 426 24,800 2,200 Climbing Atlanta Center
Wed 07:15:10 PM 35.8022 -79.7603 274° West 353 406 26,000 950 Climbing Atlanta Center
Wed 07:16:10 PM 35.8400 -79.8889 290° West 367 422 26,700 1,100 Climbing Atlanta Center
Wed 07:17:10 PM 35.8756 -80.0178 289° West 385 443 28,200 1,450 Climbing Atlanta Center
Wed 07:18:10 PM 35.9111 -80.1469 289° West 392 451 29,600 1,750 Climbing Atlanta Center
Wed 07:19:10 PM 35.9486 -80.2836 289° West 402 463 31,700 2,200 Climbing Atlanta Center
Wed 07:20:10 PM 35.9794 -80.4078 287° West 389 448 34,000 2,350 Climbing Atlanta Center
Wed 07:21:10 PM 36.0078 -80.5144 288° West 360 414 36,400 2,000 Climbing Atlanta Center
Wed 07:22:10 PM 36.0397 -80.6183 291° West 337 388 38,000 1,450 Climbing Atlanta Center
Wed 07:23:10 PM 36.0697 -80.7197 290° West 325 374 39,300 1,000 Climbing Atlanta Center
Wed 07:24:10 PM 36.0956 -80.8242 287° West 320 368 40,000 350 Climbing Atlanta Center
Wed 07:25:10 PM 36.1275 -80.9333 290° West 325 374 40,000  Level Atlanta Center
Wed 07:26:10 PM 36.1572 -81.0453 288° West 330 380 40,000  Level Atlanta Center
Wed 07:27:10 PM 36.1847 -81.1472 289° West 342 394 40,000  Level Atlanta Center
Wed 07:28:10 PM 36.2144 -81.2619 288° West 342 394 40,000  Level Atlanta Center
Wed 07:29:10 PM 36.2419 -81.3717 287° West 342 394 40,000  Level Atlanta Center
Wed 07:31:10 PM 36.3031 -81.5989 289° West 342 394 40,000  Level Atlanta Center
Wed 07:32:10 PM 36.3325 -81.7142 288° West 342 394 40,000  Level Atlanta Center
Wed 07:33:10 PM 36.3617 -81.8319 287° West 348 400 40,000  Level Atlanta Center
Wed 07:34:10 PM 36.3908 -81.9547 286° West 348 400 40,000  Level Atlanta Center
Wed 07:35:10 PM 36.4200 -82.0700 287° West 348 400 40,000  Level Atlanta Center
Wed 07:36:10 PM 36.4675 -82.1775 299° West 354 407 40,000  Level Atlanta Center
Wed 07:37:10 PM 36.5317 -82.2792 308° West 365 420 40,000  Level Atlanta Center
Wed 07:38:10 PM 36.5956 -82.3786 309° West 373 429 40,000  Level Atlanta Center
Wed 07:38:45 PM 36.6281 -82.4283 309° West 370 426 40,000  Level Indianapolis Center
Wed 07:39:47 PM 36.6903 -82.5272 308° West 367 422 40,000  Level Indianapolis Center
Wed 07:40:48 PM 36.7533 -82.6261 309° West 365 420 40,000  Level Indianapolis Center
Wed 07:41:50 PM 36.8269 -82.7425 308° West 365 420 40,000  Level Indianapolis Center
Wed 07:42:52 PM 36.8867 -82.8372 308° West 365 420 40,000  Level Indianapolis Center
Wed 07:43:54 PM 36.9489 -82.9381 308° West 365 420 40,000  Level Indianapolis Center
Wed 07:44:56 PM 37.0211 -83.0517 309° West 365 420 40,000  Level Indianapolis Center
Wed 07:45:58 PM 37.0831 -83.1511 308° West 365 420 40,000  Level Indianapolis Center
Wed 07:47:00 PM 37.1444 -83.2500 308° West 364 419 40,000  Level Indianapolis Center
Wed 07:48:02 PM 37.2058 -83.3503 308° West 364 419 40,000  Level Indianapolis Center
Wed 07:49:04 PM 37.2672 -83.4481 308° West 360 414 40,000  Level Indianapolis Center
Wed 07:50:06 PM 37.3286 -83.5497 307° West 360 414 40,000  Level Indianapolis Center
Wed 07:51:07 PM 37.3992 -83.6639 308° West 359 413 40,000  Level Indianapolis Center
Wed 07:52:09 PM 37.4611 -83.7639 308° West 359 413 40,000  Level Indianapolis Center
Wed 07:53:11 PM 37.5233 -83.8667 307° West 364 419 40,000  Level Indianapolis Center
Wed 07:54:13 PM 37.5856 -83.9681 308° West 364 419 40,000  Level Indianapolis Center
Wed 07:55:15 PM 37.6483 -84.0711 308° West 366 421 40,000  Level Indianapolis Center
Wed 07:56:17 PM 37.7172 -84.1700 311° West 372 428 40,000 -387 Level Indianapolis Center
Wed 07:57:19 PM 37.8067 -84.2783 316° Northwest 379 436 39,200 -878 Descending Indianapolis Center
Wed 07:58:20 PM 37.8644 -84.3831 305° West 366 421 38,200 -585 Descending Indianapolis Center
Wed 07:59:22 PM 37.9253 -84.4858 307° West 364 419 38,000 -97 Descending Indianapolis Center
Wed 08:00:24 PM 37.9828 -84.5875 306° West 357 411 38,000  Level Indianapolis Center
Wed 08:01:26 PM 38.0408 -84.6867 307° West 355 409 38,000  Level Indianapolis Center
Wed 08:02:28 PM 38.1025 -84.7908 307° West 362 417 38,000  Level Indianapolis Center
Wed 08:03:30 PM 38.1744 -84.9142 307° West 367 422 38,000  Level Indianapolis Center
Wed 08:04:31 PM 38.2367 -85.0222 306° West 372 428 38,000  Level Indianapolis Center
Wed 08:05:33 PM 38.3006 -85.1278 308° West 374 430 38,000  Level Indianapolis Center
Wed 08:06:35 PM 38.3550 -85.2242 306° West 374 430 38,000  Level Indianapolis Center
Wed 08:07:37 PM 38.4311 -85.3531 307° West 377 434 38,000  Level Indianapolis Center
Wed 08:08:38 PM 38.4922 -85.4614 306° West 377 434 38,000  Level Indianapolis Center
Wed 08:09:40 PM 38.5550 -85.5706 306° West 377 434 38,000  Level Indianapolis Center
Wed 08:10:42 PM 38.6167 -85.6789 306° West 377 434 38,000  Level Indianapolis Center
Wed 08:11:43 PM 38.6764 -85.7817 307° West 377 434 38,000  Level Indianapolis Center
Wed 08:12:45 PM 38.7417 -85.8981 306° West 379 436 38,000  Level Indianapolis Center
Wed 08:13:47 PM 38.8039 -86.0089 306° West 380 437 38,000 -390 Level Indianapolis Center
Wed 08:14:48 PM 38.8667 -86.1206 306° West 381 438 37,200 -976 Descending Indianapolis Center
Wed 08:15:50 PM 38.9386 -86.2486 306° West 386 444 36,000 -1,548 Descending Indianapolis Center
Wed 08:16:52 PM 38.9964 -86.3525 306° West 370 426 34,000 -1,902 Descending Indianapolis Center
Wed 08:17:53 PM 39.0508 -86.4503 306° West 345 397 32,100 -1,756 Descending Indianapolis Center
Wed 08:18:55 PM 39.1100 -86.5556 306° West 351 404 30,400 -1,024 Descending Indianapolis Center
Wed 08:19:56 PM 39.1683 -86.6614 305° West 358 412 30,000 -1,122 Descending Indianapolis Center
Wed 08:20:58 PM 39.2261 -86.7661 305° West 358 412 28,100 -1,902 Descending Indianapolis Center
Wed 08:21:59 PM 39.2861 -86.8747 306° West 364 419 26,100 -2,146 Descending Indianapolis Center
Wed 08:23:01 PM 39.3594 -87.0072 306° West 372 428 23,700 -2,177 Descending Indianapolis Center
Wed 08:24:03 PM 39.4203 -87.1206 305° West 377 434 21,600 -1,756 Descending Indianapolis Center
Wed 08:25:04 PM 39.4808 -87.2317 305° West 377 434 20,100 -780 Descending Indianapolis Center
Wed 08:26:06 PM 39.5389 -87.3397 305° West 372 428 20,000 -341 Descending Indianapolis Center
Wed 08:27:07 PM 39.5983 -87.4478 306° West 369 425 19,400 -1,918 Descending Indianapolis Center
Wed 08:28:08 PM 39.6486 -87.5425 305° West 334 384 16,100 -2,976 Descending Indianapolis Center
Wed 08:29:10 PM 39.6972 -87.6319 305° West 310 357 13,300 -2,585 Descending Indianapolis Center
Wed 08:30:11 PM 39.7322 -87.7228 297° West 288 331 10,800 -2,439 Descending Indianapolis Center
Wed 08:31:13 PM 39.7567 -87.8097 290° West 263 303 8,300 -2,146 Descending Indianapolis Center
Wed 08:32:14 PM 39.7844 -87.9064 291° West 244 281 6,400 -1,463 Descending Indianapolis Center
Wed 08:33:16 PM 39.8081 -87.9794 293° West 230 265 5,300 -1,065 Descending Indianapolis Center
Wed 08:35:00 PM 39.9002 -88.0983 323° Northwest  Level Estimated
Wed 08:42:00 PM 40.0333 -88.2667 311° West  Level FlightAware Approximate
Wed 08:43:00 PM 40.0388 -88.2778 311° West  Level Estimated
Wed 08:44:00 PM 40.0388 -88.2778 311° West  Level Estimated
Wed 08:45:00 PM 40.0388 -88.2778 311° West  Level Estimated
Wed 08:46:00 PM 40.0388 -88.2778 311° West  Level Estimated
Wed 08:47:00 PM 40.0388 -88.2778 311° West  Level Estimated

Login

Don't have an account? Register now (free) for customized features, flight alerts, and more!